Weather observations for the past three days for
Port Aransas, Mustang Beach Airport
Metric (Imperial)
Date Time (cdt) Wind (kph) Vis. (km) Weather Sky Cond. Temperature (ºC) Relative Humidity Wind Chill (°C) Heat Index (°C) Pressure Precipitation (cm)
Air Dwpt 6 hour altimeter (cm) sea level (mb) 1 hr 3 hr 6 hr
Max. Min.
10 08:15 SE 11 16.09 Overcast SCT006 BKN011 OVC021 25.4 23.9 91% 27 75.9 0.0
10 07:55 SE 13 16.09 Overcast SCT006 SCT011 OVC021 25.1 23.8 93% 26 75.9 0.0
10 07:35 SE 11 16.09 Overcast BKN006 BKN015 OVC019 25 23.8 93% 26 75.9 0.0
10 07:15 SE 11 16.09 Overcast BKN006 BKN013 OVC019 24.9 23.7 93% 25 75.87 0.0
10 06:55 E 11 16.09 Overcast BKN006 OVC017 24.9 23.7 25.2 24.5 93% 25 75.87 0.0
10 06:35 E 7 16.09 Overcast OVC006 24.9 23.7 93% 25 75.84 0.0
10 06:15 SE 9 16.09 Overcast BKN006 OVC016 24.8 23.6 93% 25 75.84 0.0
10 05:55 SE 7 16.09 Mostly Cloudy SCT006 BKN016 24.8 23.6 93% 25 75.84 0.0
10 05:35 SE 13 16.09 Overcast SCT007 OVC016 24.9 23.6 93% 25 75.84 0.0
10 05:15 SE 11 16.09 Overcast BKN007 OVC014 24.9 23.6 93% 25 75.84 0.0
10 04:55 SE 11 16.09 Overcast OVC005 24.9 23.6 93% 25 75.84 0.0
10 04:35 E 13 16.09 Overcast OVC005 24.9 23.6 93% 25 75.84 0.0
10 04:15 E 11 16.09 Mostly Cloudy BKN007 24.7 23.4 93% 25 75.84 0.0
10 03:55 SE 9 16.09 Partly Cloudy SCT007 24.7 23.3 92% 25 75.82 0.0
10 03:35 SE 9 16.09 Fair CLR 24.6 23.1 91% 25 75.84 0.0
10 03:15 SE 11 16.09 Fair CLR 24.8 23 90% 25 75.84 0.0
10 02:55 SE 11 16.09 Fair CLR 24.9 23 89% 25 75.84 0.0
10 02:35 SE 11 16.09 Fair CLR 24.7 22.7 89% 25 75.84 0.0
10 02:15 SE 11 16.09 Fair CLR 24.9 22.5 87% 26 75.84 0.0
10 01:55 SE 11 16.09 Fair CLR 25 22.5 86% 26 75.87 0.0
10 01:35 SE 11 16.09 Fair CLR 24.8 22.5 87% 25 75.87 0.0
10 01:15 SE 17 16.09 Fair CLR 25 22.8 88% 26 75.87 0.0
10 00:55 SE 15 16.09 Fair CLR 25.2 23.2 27.2 25 89% 26 75.87 0.0
10 00:35 E 15 16.09 Fair CLR 25.2 23 88% 26 75.9 0.0
10 00:15 E 15 16.09 Fair CLR 25.3 22.9 87% 26 75.87 0.0
09 23:55 SE 17 16.09 Fair CLR 25 22.7 87% 26 75.84 0.0
09 23:35 SE 13 16.09 Fair CLR 25.1 22.6 86% 26 75.82 0.0
09 23:15 SE 17 16.09 Fair CLR 25.1 22.5 86% 26 75.79 0.0
09 22:55 SE 15 16.09 Fair CLR 25.3 22.3 84% 26 75.79 0.0
09 22:35 SE 17 16.09 Fair CLR 25.4 22.3 83% 27 75.82 0.0
09 22:15 SE 15 16.09 Fair CLR 25.5 22.1 82% 27 75.79 0.0
09 21:55 E 15 16.09 Fair CLR 25.6 22 81% 27 75.79 0.0
09 21:35 E 17 16.09 Fair CLR 25.7 21.6 78% 27 75.77 0.0
09 21:15 E 20 16.09 Fair CLR 25.9 21.3 76% 27 75.74 0.0
09 20:55 SE 17 16.09 Fair CLR 26 21 74% 27 75.72 0.0
09 20:35 SE 19 16.09 Fair CLR 26.2 20.6 71% 28 75.69 0.0
09 20:15 SE 17 16.09 Fair CLR 26.3 20.9 72% 28 75.69 0.0
09 19:55 SE 15 16.09 Fair CLR 26.6 20.7 70% 28 75.69 0.0
09 19:35 SE 17 16.09 Fair CLR 26.9 20.7 69% 29 75.72 0.0
09 19:15 E 17 16.09 Fair CLR 27 20.7 68% 29 75.69 0.0
09 18:55 SE 17 16.09 Fair CLR 27.1 20.7 30 26.9 68% 29 75.69 0.0
09 18:35 SE 19 16.09 Fair CLR 27.4 20.7 67% 29 75.69 0.0
09 18:15 SE 17 16.09 Fair CLR 28.1 20.7 64% 30 75.69 0.0
09 17:55 SE 15 16.09 Fair CLR 27.7 20.7 66% 30 75.72 0.0
09 17:35 SE 20 16.09 Fair CLR 27.9 20.7 65% 30 75.72 0.0
09 17:15 E 19 16.09 Fair CLR 27.7 21.4 69% 30 75.72 0.0
09 16:55 E 22 16.09 Fair CLR 27.7 21.6 69% 30 75.69 0.0
09 16:35 E 17 16.09 Fair CLR 28.1 22.4 71% 31 75.72 0.0
09 16:15 SE 13 16.09 Fair CLR 28.9 21.7 65% 32 75.72 0.0
09 15:55 SE 11 16.09 Fair CLR 29.1 21.4 63% 32 75.72 0.0
09 15:35 SE 13 16.09 Fair CLR 29.2 21.4 63% 32 75.72 0.0
09 15:15 E 11 16.09 Fair CLR 29.2 20.9 61% 32 75.72 0.0
09 14:55 E 13 16.09 Fair CLR 28.9 20.9 62% 31 75.72 0.0
09 14:35 NE 7 16.09 Fair CLR 28.7 21.2 64% 31 75.74 0.0
09 14:15 NW 6 16.09 Fair CLR 28.7 20.9 63% 31 75.74 0.0
09 13:55 NW 7 16.09 Fair CLR 28.3 19.6 59% 30 75.74 0.0
09 13:35 W 9 16.09 Fair CLR 28.1 19.8 61% 30 75.74 0.0
09 13:15 W 11 16.09 Fair CLR 27.8 20.1 63% 29 75.74 0.0
09 12:35 NW 9 16.09 Fair CLR 27.4 19.1 61% 29 75.77 0.0
09 12:15 N 11 16.09 Fair CLR 27.2 20.4 66% 29 75.77 0.0
09 11:55 NW 7 16.09 Fair CLR 26.8 19.7 65% 28 75.79 0.0
09 11:35 W 6 16.09 Fair CLR 27 19.3 63% 28 75.82 0.0
09 11:15 NW 9 16.09 Fair CLR 26.2 21.1 74% 28 75.84 0.0
09 10:55 NW 11 16.09 Fair CLR 25.8 20.9 74% 27 75.82 0.0
09 10:35 Calm 16.09 Fair CLR 25.9 19.3 67% 27 75.77 0.0
09 10:15 W 7 16.09 Fair CLR 25.6 19.2 68% 27 75.74 0.0
09 09:55 NW 11 16.09 Fair CLR 25.1 20 73% 26 75.72 0.0 0.69
09 09:35 SE 17 16.09 Fair CLR 25 19.3 71% 26 75.62 0.0
09 09:15 SE 28 G 33 16.09 Partly Cloudy SCT070 SCT095 24.2 19.6 76% 25 75.64 0.0
09 08:55 SE 33 G 57 8.05 Light Rain and Breezy SCT023 BKN100 OVC110 23.3 19.8 81% 75.62 0.0 0.23
09 08:30 SE 30 G 39 8.05 Light Rain SCT065 BKN100 OVC120 23.1 20.3 84% 75.79 0.0 0.13
09 08:15 SE 31 G 37 11.27 Light Rain OVC110 23.2 20.8 86% 75.82 0.0 0.05
09 07:55 SE 24 G 33 6.44 Light Rain Fog/Mist SCT080 BKN110 23.2 21.1 88% 75.87 0.0 0.41
09 07:35 SE 24 G 33 8.05 Light Rain Fog/Mist SCT016 SCT040 BKN110 23.7 21.5 88% 75.87 0.0 0.25
09 07:15 E 15 8.05 Light Rain Fog/Mist SCT035 BKN046 BKN060 23.6 21.8 90% 75.87 0.0 0.13
09 06:55 NE 7 11.27 Thunderstorm Light Rain in Vicinity Fog/Mist SCT035 BKN048 OVC050 23.5 21.8 25.5 23.2 90% 75.95 0.0 0.48 0.69
09 06:35 NW 6 4.83 Thunderstorm Light Rain in Vicinity Fog/Mist SCT043 BKN050 23.8 22.7 94% 75.97 0.0 0.36
09 06:15 NW 7 4.02 Thunderstorm Light Rain Fog/Mist SCT032 SCT044 BKN050 24.9 23.9 94% 25 75.97 0.0 0.18
09 05:55 NW 11 4.83 Rain Fog/Mist SCT010 BKN026 BKN037 24.9 23.8 94% 25 75.92 0.0 0.2
09 05:35 W 7 6.44 Thunderstorm Light Rain in Vicinity Fog/Mist SCT011 BKN026 OVC050 25.1 23.9 93% 26 75.9 0.0 0.05
09 05:15 NW 11 11.27 Thunderstorm Light Rain SCT007 SCT039 BKN050 25.1 23.9 93% 26 75.82 0.0
09 04:35 NE 7 16.09 Fair CLR 25.1 23.6 91% 26 75.69 0.0
09 04:15 E 9 16.09 Fair CLR 25.1 23.6 91% 26 75.64 0.0
09 03:55 E 9 16.09 Fair CLR 25.1 23.6 91% 26 75.64 0.0
09 03:35 SE 13 16.09 Fair CLR 25.1 23.6 91% 26 75.67 0.0
09 03:15 SE 15 16.09 Fair CLR 25.2 23.6 91% 26 75.69 0.0
09 02:55 SE 15 16.09 Partly Cloudy SCT012 SCT020 25.2 23.6 91% 26 75.72 0.0
09 02:35 E 13 16.09 Mostly Cloudy SCT010 BKN018 BKN023 25.3 23.7 91% 26 75.72 0.0
09 02:15 E 15 16.09 Overcast SCT007 BKN010 OVC020 25.4 23.8 91% 27 75.69 0.0
09 01:55 N 6 16.09 Overcast OVC005 25.4 23.9 91% 27 75.77 0.0
09 01:35 NE 11 16.09 Overcast OVC007 25.3 23.9 92% 26 75.74 0.0
09 01:15 E 9 16.09 Overcast OVC007 25.5 24 91% 27 75.74 0.0
09 00:55 E 7 16.09 Mostly Cloudy BKN007 BKN012 BKN080 25.5 24 26.1 25.4 91% 27 75.77 0.0
09 00:35 E 7 16.09 Partly Cloudy SCT012 SCT019 SCT110 25.5 24 91% 27 75.74 0.0
09 00:15 E 13 16.09 Partly Cloudy SCT011 SCT017 25.6 23.9 90% 27 75.77 0.0
08 23:55 SE 7 16.09 Mostly Cloudy SCT009 BKN016 25.5 23.9 91% 27 75.79 0.0
08 23:35 E 11 16.09 Overcast BKN009 OVC018 25.6 24 91% 27 75.77 0.0
08 23:15 E 11 16.09 Overcast OVC011 25.5 24.1 92% 27 75.77 0.0
08 22:55 E 9 16.09 Overcast OVC011 25.5 24 91% 27 75.77 0.0
08 22:35 E 11 16.09 Mostly Cloudy BKN009 25.5 23.9 91% 27 75.74 0.0
08 22:15 E 15 16.09 Partly Cloudy SCT009 25.5 23.8 90% 27 75.69 0.0
08 21:55 E 11 16.09 Partly Cloudy SCT009 25.6 23.8 90% 27 75.72 0.0
08 21:35 E 13 16.09 Fair CLR 25.7 23.9 90% 27 75.64 0.0
08 21:15 E 11 16.09 Fair CLR 25.8 23.9 89% 28 75.62 0.0
08 20:55 SE 9 16.09 Fair CLR 25.6 23.8 90% 27 75.59 0.0
08 20:35 SE 9 16.09 Fair CLR 25.6 23.8 90% 27 75.57 0.0
08 20:15 SE 9 16.09 Fair CLR 25.7 23.8 89% 27 75.57 0.0
08 19:55 SE 13 16.09 Fair CLR 25.7 23.9 90% 27 75.54 0.0
08 19:35 SE 13 16.09 Fair CLR 25.8 23.9 89% 28 75.54 0.0
08 19:15 S 17 16.09 Fair CLR 25.9 24 89% 28 75.57 0.0
08 18:55 SE 15 16.09 Fair CLR 26.1 24.1 28.8 26.1 89% 28 75.54 0.0
08 18:35 SE 13 16.09 Fair CLR 26.1 24.1 89% 28 75.54 0.0
08 18:15 SE 19 11.27 Fair CLR 26.3 24.2 88% 29 75.54 0.0
08 17:55 SE 17 11.27 Fair CLR 26.5 24.2 87% 29 75.57 0.0
08 17:35 SE 17 11.27 Fair CLR 26.6 24.2 87% 29 75.59 0.0
08 17:15 SE 17 16.09 Partly Cloudy SCT080 26.7 24.1 86% 30 75.59 0.0
08 16:55 S 15 16.09 Fair CLR 26.8 24.2 86% 30 75.62 0.0
08 16:35 SE 17 16.09 Fair CLR 27 24.2 85% 30 75.62 0.0
08 16:15 SE 15 16.09 Fair CLR 27.1 24.4 85% 31 75.62 0.0
08 15:55 S 17 16.09 Fair CLR 27.4 24.2 83% 31 75.64 0.0
08 15:35 SE 19 16.09 Fair CLR 27.9 24.4 81% 32 75.67 0.0
08 15:15 SE 20 16.09 Fair CLR 28.5 24.7 80% 33 75.67 0.0
08 14:55 SE 22 16.09 Fair CLR 27.9 24.4 81% 32 75.69 0.0
08 14:35 SE 19 16.09 Fair CLR 28.1 24.5 81% 32 75.72 0.0
08 14:15 SE 15 16.09 Fair CLR 27.4 24.2 83% 31 75.74 0.0
08 13:55 SE 19 16.09 Fair CLR 27.3 24.2 83% 31 75.74 0.0
08 13:35 SE 15 16.09 Partly Cloudy SCT005 27.2 24 83% 30 75.77 0.0
08 13:15 E 15 16.09 Fair CLR 26.5 23.8 85% 29 75.79 0.0
08 12:55 E 15 16.09 Partly Cloudy SCT004 26.6 23.5 26.7 20.7 83% 29 75.82 0.0
08 12:35 E 19 16.09 Partly Cloudy SCT004 26.3 23.2 83% 28 75.82 0.0
08 12:15 E 20 16.09 Mostly Cloudy BKN004 26.1 23.2 84% 28 75.84 0.0
08 11:55 E 22 16.09 Mostly Cloudy BKN004 25.7 22.9 85% 27 75.87 0.0
08 11:35 E 20 16.09 Partly Cloudy SCT004 25 22.7 87% 26 75.87 0.0
08 11:15 E 22 16.09 Partly Cloudy SCT004 24.5 22.4 88% 25 75.87 0.0
08 10:55 E 17 16.09 Partly Cloudy SCT006 24.2 22.1 88% 24 75.9 0.0
08 10:35 E 26 16.09 Partly Cloudy SCT008 23.7 21.5 88% 75.9 0.0
08 10:15 NE 15 16.09 Partly Cloudy SCT008 23 20.9 88% 75.95 0.0
08 09:55 NE 19 16.09 Partly Cloudy SCT006 SCT070 22.7 20.6 88% 75.95 0.0
08 09:35 N 20 16.09 Mostly Cloudy BKN006 BKN070 22.3 20.5 90% 75.97 0.0
08 09:15 N 24 16.09 Overcast OVC006 22 20 88% 76 0.0
08 08:55 N 26 16.09 Overcast OVC006 21.5 19.8 90% 75.97 0.0
08 08:35 N 19 16.09 Overcast OVC006 21.1 19.6 91% 76 0.0
08 08:15 N 20 11.27 Overcast OVC006 20.8 19.4 92% 76 0.0
08 07:55 N 22 16.09 Overcast OVC006 20.8 19.5 92% 76 0.0
08 07:35 N 22 16.09 Overcast OVC004 20.9 19.8 93% 75.97 0.0
08 07:15 N 24 11.27 Overcast OVC004 21.7 20.7 94% 75.92 0.0
08 06:55 N 22 8.05 Fog/Mist OVC004 22.1 21.2 23.7 22 95% 75.9 0.0
08 06:35 N 19 11.27 Overcast OVC004 22.5 21.6 95% 75.9 0.0
08 06:15 N 13 11.27 Fog/Mist OVC004 22.6 21.8 95% 75.87 0.0
08 05:55 NE 15 11.27 Fog/Mist OVC004 22.3 21.5 95% 75.84 0.0
08 05:35 NE 13 8.05 Fog/Mist OVC004 22.1 21.3 95% 75.87 0.0
08 05:15 N 13 8.05 Fog/Mist OVC004 22 21.2 95% 75.9 0.0
08 04:55 N 15 6.44 Fog/Mist OVC004 22.1 21.2 95% 75.9 0.0
08 04:35 N 20 5.63 Fog/Mist OVC004 22.6 21.5 94% 75.92 0.0
08 04:15 N 13 6.44 Fog/Mist OVC004 23.1 22.1 94% 75.92 0.0
08 03:55 N 15 8.05 Fog/Mist OVC006 23.2 22 93% 75.9 0.0
08 03:35 N 13 11.27 Overcast OVC008 23.3 21.9 92% 75.92 0.0
08 03:15 N 9 16.09 Overcast OVC008 23.5 22 91% 75.97 0.0
08 02:55 N 7 16.09 Overcast OVC008 23.6 21.9 90% 75.97 0.0
08 02:35 N 7 16.09 Overcast OVC008 23.7 22 90% 75.97 0.0
08 02:15 NE 9 16.09 Overcast OVC008 23.6 21.9 90% 75.97 0.0
08 01:55 NE 13 16.09 Overcast BKN008 OVC012 23.6 22 91% 75.95 0.0
08 01:35 NE 15 16.09 Overcast OVC008 23.5 22 91% 76 0.0
08 01:15 E 17 16.09 Overcast OVC006 23.2 21.8 92% 75.97 0.0
08 00:55 E 19 11.27 Overcast OVC008 23.3 21.7 23.5 22.2 91% 76 0.0
08 00:35 E 19 16.09 Overcast OVC008 23.3 21.4 89% 75.97 0.0
08 00:15 E 15 16.09 Overcast OVC008 23.4 21.4 89% 76.07 0.0
07 23:55 E 28 G 35 16.09 Overcast OVC008 23.4 21.3 88% 75.97 0.0
07 23:35 E 28 G 44 16.09 Overcast OVC008 23.2 21.1 88% 75.87 0.0
07 23:15 E 35 G 41 16.09 Overcast and Breezy OVC010 23.2 21 88% 75.92 0.0
07 22:55 E 31 16.09 Overcast OVC010 22.9 20.6 87% 75.97 0.0
07 22:35 E 28 16.09 Overcast OVC012 22.9 20.2 85% 76.05 0.0
07 22:15 NE 24 16.09 Overcast OVC012 22.9 20.2 85% 76.07 0.0
07 21:55 NE 17 16.09 Overcast OVC012 22.9 20 84% 76.07 0.0
07 21:35 NE 24 16.09 Overcast OVC012 22.9 19.8 83% 76.05 0.0
07 21:15 NE 17 16.09 Overcast OVC014 22.9 19.7 82% 76.07 0.0
07 20:55 NE 19 16.09 Overcast OVC014 22.8 19.5 82% 76.05 0.0
07 20:35 NE 17 16.09 Overcast OVC014 22.7 19.1 80% 76.02 0.0
07 20:15 N 19 16.09 Overcast OVC016 22.3 18.5 79% 76.02 0.0
07 19:55 NE 19 16.09 Overcast OVC016 22.3 18.3 78% 76 0.0
07 19:35 N 19 16.09 Overcast OVC016 22.4 18.2 77% 76 0.0
07 19:15 N 24 16.09 Overcast OVC016 22.4 18.1 77% 76 0.0
07 18:55 N 22 16.09 Overcast OVC016 22.6 18.3 23 20.9 77% 76 0.0
07 18:35 N 24 16.09 Overcast OVC016 22.7 18.4 77% 76 0.0
07 18:15 N 20 16.09 Overcast OVC016 22.8 18.5 77% 76 0.0
07 17:55 NE 20 16.09 Overcast OVC016 22.8 18.4 76% 76 0.0
07 17:35 NE 24 16.09 Overcast OVC016 22.9 18.4 76% 75.97 0.0
07 17:15 NE 26 G 31 16.09 Overcast OVC016 22.8 18.3 76% 75.97 0.0
07 16:55 NE 30 16.09 Overcast OVC016 22.9 18.3 75% 75.97 0.0
07 16:35 N 26 16.09 Overcast OVC016 22.8 18.2 75% 75.97 0.0
07 16:15 N 26 16.09 Overcast OVC014 22.3 18.2 78% 76 0.0
07 15:55 NE 26 16.09 Overcast OVC014 22.5 18.2 77% 76.02 0.0
07 15:35 NE 20 G 30 16.09 Overcast OVC014 22.4 18.4 78% 76.02 0.0
07 15:15 NE 24 G 35 16.09 Overcast OVC012 22.5 18.4 78% 76.05 0.0
07 14:55 NE 30 16.09 Overcast OVC012 22 18.2 79% 76.05 0.0
07 14:35 N 26 16.09 Overcast OVC012 21.5 18.1 81% 76.1 0.0
07 14:15 N 24 16.09 Overcast OVC012 21.2 17.9 82% 76.1 0.0
07 13:55 N 24 G 35 16.09 Overcast OVC012 21 17.9 83% 76.12 0.0
07 13:35 N 30 G 35 16.09 Overcast OVC012 21 17.8 82% 76.15 0.0
07 13:15 N 26 G 31 16.09 Overcast OVC012 21.3 18 82% 76.17 0.0
07 12:55 N 30 G 37 16.09 Overcast OVC012 21.1 17.9 21.6 20.6 82% 76.17 0.0
07 12:35 NE 31 G 37 16.09 Overcast OVC012 21.2 18 82% 76.17 0.0
07 12:15 N 30 G 37 16.09 Overcast OVC012 21.2 17.9 82% 76.17 0.0
07 11:55 N 31 16.09 Overcast OVC012 21.5 18.1 81% 76.15 0.0
07 11:35 N 28 16.09 Overcast OVC012 21.4 18.1 82% 76.15 0.0
07 11:15 NE 30 16.09 Overcast OVC012 21.6 18.3 82% 76.15 0.0
07 10:55 N 30 G 37 16.09 Overcast OVC012 21.3 18.2 83% 76.12 0.0
07 10:35 N 31 16.09 Overcast OVC012 21 17.8 82% 76.12 0.0
07 10:15 NE 30 16.09 Overcast OVC012 20.9 17.7 82% 76.12 0.0
07 09:55 N 30 16.09 Overcast OVC012 20.8 17.7 83% 76.12 0.0
07 09:35 N 31 16.09 Overcast OVC012 20.7 17.7 83% 76.12 0.0
07 09:15 N 28 G 39 16.09 Overcast OVC012 20.7 17.8 84% 76.12 0.0
07 08:55 N 24 16.09 Overcast OVC012 21 17.9 83% 76.1 0.0
07 08:35 N 30 G 35 16.09 Overcast OVC012 21.4 18.4 83% 76.07 0.0
Date Time (cdt) Wind (kph) Vis. (km) Weather Sky Cond. Air Dwpt Max. Min. Relative Humidity Wind Chill (°C) Heat Index (°C) altimeter (cm) sea level (mb) 1 hr 3 hr 6 hr
6 hour
Temperature (ºC) Pressure Precipitation (cm)